Crosby Integrity — WDH3351 — position and weather

sailwx.info

Track history (hours):
 
Tides and Currents Weather Stations Pressure Air Temp Water Temp Dewpoint Dewpoint Depression Visibility Wind Speed Wind Dir Waves Ship Positions

Crosby Integrity

Owner: Crosby Marine Transportation, LLC, Galliano, LA. More information available from US FCC via Universal Licensing System and Coast Guard Vessel Documentation Center.

Last reported at 2017-Dec-09 20:09 UTC. Time now 2017-Dec-13 09:01 UTC.
Position N 25°25' W 080°03'.

Length 33 m; draft 4.3 m.

Type: Towing. MMSI: 367508680.

Date/timePositionNaut miles runAvg speedWind from/ knotsBaromVisibWave heightAir tempDewpointWater temp
2017-Dec-09 20:09N 25°25' W 080°03'2 6.3
2017-Dec-09 19:52N 25°27' W 080°03'2 6.2
2017-Dec-09 19:31N 25°29' W 080°02'3 6.6
2017-Dec-09 19:00N 25°33' W 080°02'3 6.8
2017-Dec-09 18:30N 25°36' W 080°02'4 7.1
2017-Dec-09 18:01N 25°40' W 080°02'4 7.7
2017-Dec-09 17:31N 25°44' W 080°02'4 8.4
2017-Dec-09 17:00N 25°48' W 080°03'4 8.5
2017-Dec-09 16:30N 25°52' W 080°03'4 8.5
2017-Dec-09 16:01N 25°56' W 080°03'4 8.2
2017-Dec-09 15:30N 26°00' W 080°03'4 7.7
2017-Dec-09 15:00N 26°04' W 080°03'2 4.4
2017-Dec-09 14:30N 26°06' W 080°05'2 3.8
2017-Dec-09 14:00N 26°06' W 080°07'0 0.0
2017-Dec-09 13:30N 26°06' W 080°07'0 0.0
2017-Dec-09 13:00N 26°06' W 080°07'0 0.0
2017-Dec-09 12:30N 26°06' W 080°07'0 0.0
2017-Dec-09 12:00N 26°06' W 080°07'0 0.0
2017-Dec-09 11:30N 26°06' W 080°07'0 0.0
2017-Dec-09 11:00N 26°06' W 080°07'0 0.0
2017-Dec-09 10:30N 26°06' W 080°07'0 0.0
2017-Dec-09 10:00N 26°06' W 080°07'0 0.0
2017-Dec-09 09:30N 26°06' W 080°07'0 0.0
2017-Dec-09 09:00N 26°06' W 080°07'0 0.0
2017-Dec-09 08:30N 26°06' W 080°07'0 0.0
2017-Dec-09 08:00N 26°06' W 080°07'0 0.0
2017-Dec-09 07:30N 26°06' W 080°07'0 0.0
2017-Dec-09 07:00N 26°06' W 080°07'0 0.0
2017-Dec-09 06:31N 26°06' W 080°07'0 0.0
2017-Dec-09 06:00N 26°06' W 080°07'0 0.0
2017-Dec-09 05:30N 26°06' W 080°07'0 0.0
2017-Dec-09 05:00N 26°06' W 080°07'0 0.0
2017-Dec-09 04:30N 26°06' W 080°07'0 0.0
2017-Dec-09 03:59N 26°06' W 080°07'0 0.0
2017-Dec-09 03:30N 26°06' W 080°07'0 0.0
2017-Dec-09 03:00N 26°06' W 080°07'0 0.0
2017-Dec-09 02:31N 26°06' W 080°07'0 0.0
2017-Dec-09 02:01N 26°06' W 080°07'0 0.0
2017-Dec-09 01:30N 26°06' W 080°07'0 0.0
2017-Dec-09 01:00N 26°06' W 080°07'0 0.0
2017-Dec-09 00:30N 26°06' W 080°07'0 0.0
2017-Dec-09 00:00N 26°06' W 080°07'0 0.0
2017-Dec-08 23:30N 26°06' W 080°07'1 1.8
2017-Dec-08 23:00N 26°06' W 080°06'2 4.2
2017-Dec-08 22:30N 26°05' W 080°04'0 0.9
2017-Dec-08 22:00N 26°05' W 080°04'3 6.9
2017-Dec-08 21:30N 26°02' W 080°01'3 5.2
2017-Dec-08 21:00N 26°00' W 079°59'2 3.1
2017-Dec-08 20:30N 25°59' W 079°58'2 3.1
2017-Dec-08 20:00N 26°00' W 079°59'2 3.2
2017-Dec-08 19:30N 26°02' W 079°59'1 1.7
2017-Dec-08 19:00N 26°03' W 079°58'3 6.2
2017-Dec-08 18:30N 25°59' W 079°59'3 5.9
2017-Dec-08 18:01N 25°57' W 079°59'3 5.6
2017-Dec-08 17:31N 25°54' W 079°59'3 5.3
2017-Dec-08 17:00N 25°51' W 079°59'1 2.7
2017-Dec-08 16:30N 25°52' W 079°59'2 3.8
2017-Dec-08 16:00N 25°54' W 079°60'2 3.4
2017-Dec-08 15:30N 25°56' W 079°60'2 3.2
2017-Dec-08 15:01N 25°58' W 079°60'2 3.3
2017-Dec-08 14:30N 25°59' W 080°00'2 3.6
2017-Dec-08 14:00N 26°01' W 080°01'2 3.4
2017-Dec-08 13:30N 26°03' W 080°01'3 5.3
2017-Dec-08 13:01N 26°00' W 080°00'3 6.2
2017-Dec-08 12:30N 25°57' W 079°59'4 8.3
2017-Dec-08 12:00N 25°53' W 079°59'4 8.0
2017-Dec-08 11:30N 25°49' W 079°59'4 8.5
2017-Dec-08 11:00N 25°45' W 079°59'4 8.9
2017-Dec-08 10:31N 25°40' W 079°59'510.1
2017-Dec-08 09:59N 25°35' W 079°59'  
Track history (hours):
 
Tides and Currents Weather Stations Pressure Air Temp Water Temp Dewpoint Dewpoint Depression Visibility Wind Speed Wind Dir Waves Ship Positions

Crosby Integrity

Owner: Crosby Marine Transportation, LLC, Galliano, LA. More information available from US FCC via Universal Licensing System and Coast Guard Vessel Documentation Center.

Last reported at 2017-Dec-09 20:09 UTC. Time now 2017-Dec-13 09:01 UTC.
Position N 25°25' W 080°03'.

Length 33 m; draft 4.3 m.

Type: Towing. MMSI: 367508680.

Date/timePositionNaut miles runAvg speedWind from/ knotsBaromVisibWave heightAir tempDewpointWater temp
2017-Dec-09 20:09N 25°25' W 080°03'2 6.3
2017-Dec-09 19:52N 25°27' W 080°03'2 6.2
2017-Dec-09 19:31N 25°29' W 080°02'3 6.6
2017-Dec-09 19:00N 25°33' W 080°02'3 6.8
2017-Dec-09 18:30N 25°36' W 080°02'4 7.1
2017-Dec-09 18:01N 25°40' W 080°02'4 7.7
2017-Dec-09 17:31N 25°44' W 080°02'4 8.4
2017-Dec-09 17:00N 25°48' W 080°03'4 8.5
2017-Dec-09 16:30N 25°52' W 080°03'4 8.5
2017-Dec-09 16:01N 25°56' W 080°03'4 8.2
2017-Dec-09 15:30N 26°00' W 080°03'4 7.7
2017-Dec-09 15:00N 26°04' W 080°03'2 4.4
2017-Dec-09 14:30N 26°06' W 080°05'2 3.8
2017-Dec-09 14:00N 26°06' W 080°07'0 0.0
2017-Dec-09 13:30N 26°06' W 080°07'0 0.0
2017-Dec-09 13:00N 26°06' W 080°07'0 0.0
2017-Dec-09 12:30N 26°06' W 080°07'0 0.0
2017-Dec-09 12:00N 26°06' W 080°07'0 0.0
2017-Dec-09 11:30N 26°06' W 080°07'0 0.0
2017-Dec-09 11:00N 26°06' W 080°07'0 0.0
2017-Dec-09 10:30N 26°06' W 080°07'0 0.0
2017-Dec-09 10:00N 26°06' W 080°07'0 0.0
2017-Dec-09 09:30N 26°06' W 080°07'0 0.0
2017-Dec-09 09:00N 26°06' W 080°07'0 0.0
2017-Dec-09 08:30N 26°06' W 080°07'0 0.0
2017-Dec-09 08:00N 26°06' W 080°07'0 0.0
2017-Dec-09 07:30N 26°06' W 080°07'0 0.0
2017-Dec-09 07:00N 26°06' W 080°07'0 0.0
2017-Dec-09 06:31N 26°06' W 080°07'0 0.0
2017-Dec-09 06:00N 26°06' W 080°07'0 0.0
2017-Dec-09 05:30N 26°06' W 080°07'0 0.0
2017-Dec-09 05:00N 26°06' W 080°07'0 0.0
2017-Dec-09 04:30N 26°06' W 080°07'0 0.0
2017-Dec-09 03:59N 26°06' W 080°07'0 0.0
2017-Dec-09 03:30N 26°06' W 080°07'0 0.0
2017-Dec-09 03:00N 26°06' W 080°07'0 0.0
2017-Dec-09 02:31N 26°06' W 080°07'0 0.0
2017-Dec-09 02:01N 26°06' W 080°07'0 0.0
2017-Dec-09 01:30N 26°06' W 080°07'0 0.0
2017-Dec-09 01:00N 26°06' W 080°07'0 0.0
2017-Dec-09 00:30N 26°06' W 080°07'0 0.0
2017-Dec-09 00:00N 26°06' W 080°07'0 0.0
2017-Dec-08 23:30N 26°06' W 080°07'1 1.8
2017-Dec-08 23:00N 26°06' W 080°06'2 4.2
2017-Dec-08 22:30N 26°05' W 080°04'0 0.9
2017-Dec-08 22:00N 26°05' W 080°04'3 6.9
2017-Dec-08 21:30N 26°02' W 080°01'3 5.2
2017-Dec-08 21:00N 26°00' W 079°59'2 3.1
2017-Dec-08 20:30N 25°59' W 079°58'2 3.1
2017-Dec-08 20:00N 26°00' W 079°59'2 3.2
2017-Dec-08 19:30N 26°02' W 079°59'1 1.7
2017-Dec-08 19:00N 26°03' W 079°58'3 6.2
2017-Dec-08 18:30N 25°59' W 079°59'3 5.9
2017-Dec-08 18:01N 25°57' W 079°59'3 5.6
2017-Dec-08 17:31N 25°54' W 079°59'3 5.3
2017-Dec-08 17:00N 25°51' W 079°59'1 2.7
2017-Dec-08 16:30N 25°52' W 079°59'2 3.8
2017-Dec-08 16:00N 25°54' W 079°60'2 3.4
2017-Dec-08 15:30N 25°56' W 079°60'2 3.2
2017-Dec-08 15:01N 25°58' W 079°60'2 3.3
2017-Dec-08 14:30N 25°59' W 080°00'2 3.6
2017-Dec-08 14:00N 26°01' W 080°01'2 3.4
2017-Dec-08 13:30N 26°03' W 080°01'3 5.3
2017-Dec-08 13:01N 26°00' W 080°00'3 6.2
2017-Dec-08 12:30N 25°57' W 079°59'4 8.3
2017-Dec-08 12:00N 25°53' W 079°59'4 8.0
2017-Dec-08 11:30N 25°49' W 079°59'4 8.5
2017-Dec-08 11:00N 25°45' W 079°59'4 8.9
2017-Dec-08 10:31N 25°40' W 079°59'510.1
2017-Dec-08 09:59N 25°35' W 079°59'  

Dump ship's entire track history